Time;durP1;ratioP1;P1;durP2;ratioP2;P2;SDS_P1;SDS_P2;PMS_P1;PMS_P2;Temp;Humidity;BMP_temperature;BMP_pressure;BME280_temperature;BME280_humidity;BME280_pressure;Samples;Min_cycle;Max_cycle;Signal;HPM_P1;HPM_P2
2022/06/02 00:01:00;;;;;;;10.18;6.00;;;;;;;10.19;87.37;94024.34;5110568;28;20039;-52
2022/06/02 00:03:57;;;;;;;9.73;5.83;;;;;;;10.35;86.54;94012.06;5095177;28;20356;-49
2022/06/02 00:06:47;;;;;;;8.35;5.47;;;;;;;10.57;85.99;94001.56;5113612;28;20392;-54
2022/06/02 00:09:48;;;;;;;8.57;5.80;;;;;;;10.58;85.76;94011.34;5113925;28;20342;-47
2022/06/02 00:12:33;;;;;;;10.70;6.22;;;;;;;10.62;86.01;94011.31;5113795;28;20407;-48
2022/06/02 00:15:19;;;;;;;9.60;6.22;;;;;;;10.74;86.10;94014.25;5114351;28;20043;-48
2022/06/02 00:18:10;;;;;;;8.27;5.97;;;;;;;10.93;85.47;94017.53;5114089;28;20043;-51
2022/06/02 00:20:50;;;;;;;8.13;5.78;;;;;;;10.78;85.85;94026.00;5100960;28;20446;-47
2022/06/02 00:23:46;;;;;;;8.30;6.28;;;;;;;10.65;86.63;94018.72;5112337;28;20893;-47
2022/06/02 00:26:24;;;;;;;10.52;6.00;;;;;;;10.69;86.37;94020.22;5092972;28;20035;-49
2022/06/02 00:29:10;;;;;;;11.05;6.35;;;;;;;10.85;85.61;94016.09;5112146;28;20066;-48
2022/06/02 00:31:59;;;;;;;9.00;6.53;;;;;;;10.92;85.20;94019.47;5114325;28;20399;-46
2022/06/02 00:34:32;;;;;;;8.43;5.55;;;;;;;10.96;84.82;94014.72;5113517;28;20887;-49
2022/06/02 00:37:11;;;;;;;8.60;5.78;;;;;;;10.94;84.53;94017.09;5113803;28;20047;-51
2022/06/02 00:39:39;;;;;;;12.23;7.65;;;;;;;10.86;84.96;94012.91;5114069;28;20054;-48
2022/06/02 00:42:32;;;;;;;14.38;9.05;;;;;;;10.65;86.00;94007.75;5113781;28;20425;-48
2022/06/02 00:45:10;;;;;;;12.37;8.43;;;;;;;10.37;87.64;94007.72;5107585;28;20454;-50
2022/06/02 00:47:53;;;;;;;10.25;6.82;;;;;;;10.75;86.39;94013.06;5113847;28;20400;-56
2022/06/02 00:50:26;;;;;;;9.38;6.78;;;;;;;10.86;85.67;94012.13;5113055;28;20111;-51
2022/06/02 00:53:22;;;;;;;10.57;6.90;;;;;;;10.91;85.54;94017.94;5105599;28;20373;-52
2022/06/02 00:59:13;;;;;;;8.87;6.40;;;;;;;10.94;85.27;94010.84;5113291;28;20045;-48
2022/06/02 01:01:40;;;;;;;9.48;6.25;;;;;;;10.84;85.40;94017.25;5113799;28;20039;-47
2022/06/02 01:04:27;;;;;;;8.50;5.80;;;;;;;10.89;84.94;94005.84;5113102;28;20050;-50
2022/06/02 01:07:18;;;;;;;9.50;6.55;;;;;;;10.86;84.99;94025.88;5088691;28;20111;-48
2022/06/02 01:10:18;;;;;;;11.10;6.93;;;;;;;10.83;85.38;94023.97;5107167;28;20400;-46
2022/06/02 01:13:06;;;;;;;11.03;7.63;;;;;;;10.87;85.33;94021.94;5112384;28;20131;-51
2022/06/02 01:15:48;;;;;;;9.52;6.50;;;;;;;10.89;84.64;94017.59;5112327;28;20101;-53
2022/06/02 01:18:33;;;;;;;9.70;6.30;;;;;;;10.93;84.60;94020.28;5112642;28;20839;-52
2022/06/02 01:21:08;;;;;;;11.40;6.45;;;;;;;10.94;84.63;94019.06;5112698;28;20051;-46
2022/06/02 01:23:53;;;;;;;10.57;6.60;;;;;;;10.97;84.57;94015.50;5112942;28;20119;-51
2022/06/02 01:26:30;;;;;;;10.47;6.70;;;;;;;10.86;84.48;94028.63;5112440;28;20055;-51
2022/06/02 01:29:28;;;;;;;12.55;6.55;;;;;;;10.86;84.70;94034.09;5112579;28;20043;-47
2022/06/02 01:32:17;;;;;;;10.45;6.43;;;;;;;10.90;84.04;94032.84;5112501;28;20052;-46
2022/06/02 01:35:05;;;;;;;9.30;5.90;;;;;;;10.93;84.40;94029.28;5113131;28;20031;-48
2022/06/02 01:38:00;;;;;;;8.57;5.82;;;;;;;10.92;83.89;94024.22;5112209;28;23045;-45
2022/06/02 01:40:58;;;;;;;9.67;6.30;;;;;;;10.73;84.02;94025.66;5112260;28;20100;-50
2022/06/02 01:43:43;;;;;;;9.15;6.10;;;;;;;10.64;84.19;94020.66;5110686;28;20858;-47
2022/06/02 01:46:17;;;;;;;9.02;6.20;;;;;;;10.64;84.67;94031.66;5111983;28;20040;-50
2022/06/02 01:48:56;;;;;;;10.35;6.20;;;;;;;10.67;84.33;94030.84;5112705;28;20038;-48
2022/06/02 01:52:08;;;;;;;9.35;6.25;;;;;;;10.72;84.68;94037.81;5112018;28;20047;-51
2022/06/02 01:54:46;;;;;;;9.30;6.30;;;;;;;10.75;84.39;94035.03;5110446;28;20722;-46
2022/06/02 01:57:55;;;;;;;17.17;10.32;;;;;;;10.81;84.28;94029.09;5111881;28;20739;-51
2022/06/02 02:00:26;;;;;;;11.65;7.10;;;;;;;10.70;84.40;94023.75;5111768;28;20316;-49
2022/06/02 02:03:22;;;;;;;7.95;5.90;;;;;;;10.36;85.80;94039.09;5111930;28;20063;-46
2022/06/02 02:06:01;;;;;;;9.98;6.47;;;;;;;10.42;86.02;94044.88;5086466;28;20052;-49
2022/06/02 02:08:38;;;;;;;9.07;6.37;;;;;;;10.53;85.47;94033.78;5075790;28;20124;-49
2022/06/02 02:11:26;;;;;;;11.15;6.28;;;;;;;10.62;85.37;94038.75;5111773;28;20051;-46
2022/06/02 02:14:03;;;;;;;8.55;6.10;;;;;;;10.68;84.94;94037.88;5108731;28;20040;-50
2022/06/02 02:16:56;;;;;;;7.80;5.30;;;;;;;10.77;84.64;94037.38;5100096;28;20044;-45
2022/06/02 02:19:49;;;;;;;8.80;6.38;;;;;;;10.75;84.26;94037.78;5110904;28;20047;-52
2022/06/02 02:22:40;;;;;;;10.67;7.03;;;;;;;10.48;85.51;94039.72;5066272;28;20925;-52
2022/06/02 02:25:26;;;;;;;11.57;7.43;;;;;;;10.11;87.80;94044.81;5108244;28;20384;-48
2022/06/02 02:28:02;;;;;;;12.18;8.30;;;;;;;10.19;87.62;94042.78;5110982;28;20040;-46
2022/06/02 02:31:15;;;;;;;12.23;8.13;;;;;;;9.91;89.58;94046.63;5111886;28;20035;-50
2022/06/02 02:34:24;;;;;;;9.80;7.22;;;;;;;10.15;88.48;94053.03;5101940;28;21648;-49
2022/06/02 02:37:02;;;;;;;11.43;7.00;;;;;;;10.31;87.47;94049.72;5078215;28;20967;-49
2022/06/02 02:39:43;;;;;;;9.70;6.55;;;;;;;10.45;87.55;94041.31;5111645;28;20050;-49
2022/06/02 02:42:32;;;;;;;9.60;6.40;;;;;;;10.54;86.62;94032.56;5089187;28;20305;-48
2022/06/02 02:45:35;;;;;;;10.40;6.38;;;;;;;10.57;86.24;94037.25;5108975;28;20403;-49
2022/06/02 02:48:16;;;;;;;9.05;6.30;;;;;;;10.58;86.03;94031.34;5107049;28;20103;-51
2022/06/02 02:50:46;;;;;;;10.10;6.67;;;;;;;10.62;85.95;94030.50;5102121;28;20039;-49
2022/06/02 02:53:20;;;;;;;11.43;7.00;;;;;;;10.63;86.30;94034.81;5110433;28;20655;-51
2022/06/02 02:56:01;;;;;;;11.43;6.97;;;;;;;10.63;85.94;94026.59;5111075;28;20047;-50
2022/06/02 02:58:33;;;;;;;12.18;7.22;;;;;;;10.58;86.33;94025.88;5111396;28;20036;-53
2022/06/02 03:01:14;;;;;;;23.35;12.45;;;;;;;10.62;85.85;94027.78;5110738;28;20111;-53
2022/06/02 03:04:02;;;;;;;10.87;7.60;;;;;;;10.62;86.00;94031.28;5111373;28;20048;-49
2022/06/02 03:06:35;;;;;;;12.30;7.78;;;;;;;10.41;86.66;94034.34;5110423;28;21696;-48
2022/06/02 03:09:14;;;;;;;10.25;7.32;;;;;;;10.37;86.78;94037.13;5092591;28;20057;-52
2022/06/02 03:11:52;;;;;;;9.90;7.30;;;;;;;10.31;86.64;94033.28;5111341;28;20050;-48
2022/06/02 03:14:41;;;;;;;14.75;9.00;;;;;;;10.42;86.52;94041.34;5110190;28;20399;-46
2022/06/02 03:17:13;;;;;;;11.90;7.63;;;;;;;10.44;86.48;94031.53;5110467;28;20465;-46
2022/06/02 03:20:05;;;;;;;11.82;6.85;;;;;;;10.47;86.79;94032.69;5110745;28;20381;-52
2022/06/02 03:22:35;;;;;;;9.18;6.65;;;;;;;10.44;86.86;94033.50;5103237;28;21845;-47
2022/06/02 03:25:12;;;;;;;11.93;7.15;;;;;;;10.47;86.56;94033.44;5104122;28;20039;-48
2022/06/02 03:27:51;;;;;;;10.60;7.28;;;;;;;10.50;86.08;94032.66;5111018;28;20046;-52
2022/06/02 03:30:30;;;;;;;11.57;8.13;;;;;;;10.52;86.04;94034.94;5109865;28;20820;-48
2022/06/02 03:33:10;;;;;;;12.40;7.70;;;;;;;10.51;85.94;94031.44;5095970;28;20070;-53
2022/06/02 03:35:57;;;;;;;10.68;7.60;;;;;;;10.47;85.85;94036.19;5089415;28;20051;-51
2022/06/02 03:38:40;;;;;;;11.65;7.63;;;;;;;10.47;85.80;94038.16;5089186;28;20753;-50
2022/06/02 03:41:18;;;;;;;10.38;7.72;;;;;;;10.42;86.04;94041.34;5095527;28;20495;-51
2022/06/02 03:44:00;;;;;;;11.17;7.63;;;;;;;10.40;86.13;94033.53;5097730;28;20042;-45
2022/06/02 03:46:45;;;;;;;11.45;7.65;;;;;;;10.34;86.54;94041.47;5110656;28;20051;-49
2022/06/02 03:49:41;;;;;;;10.18;7.35;;;;;;;10.43;86.13;94040.19;5109951;28;21509;-49
2022/06/02 03:52:39;;;;;;;11.05;7.35;;;;;;;10.44;85.85;94042.50;5093743;28;20044;-47
2022/06/02 03:55:31;;;;;;;12.10;8.23;;;;;;;10.41;86.22;94045.31;5110043;28;20047;-50
2022/06/02 03:58:32;;;;;;;11.67;8.23;;;;;;;10.37;86.31;94048.09;5110070;28;20046;-47
2022/06/02 04:01:03;;;;;;;13.65;8.20;;;;;;;10.33;86.26;94041.88;5108601;28;20046;-48
2022/06/02 04:03:42;;;;;;;12.05;8.23;;;;;;;10.37;86.02;94045.34;5110360;28;20420;-55
2022/06/02 04:06:15;;;;;;;12.90;7.85;;;;;;;10.42;86.01;94049.59;5109886;28;20044;-49
2022/06/02 04:09:07;;;;;;;12.57;8.25;;;;;;;10.37;85.94;94046.13;5110348;28;20495;-50
2022/06/02 04:15:14;;;;;;;13.60;8.50;;;;;;;10.41;85.93;94051.56;5109068;28;20067;-53
2022/06/02 04:17:52;;;;;;;11.73;7.85;;;;;;;10.43;85.81;94057.41;5110520;28;20062;-49
2022/06/02 04:20:34;;;;;;;11.40;7.90;;;;;;;10.61;85.34;94056.41;5109621;28;20693;-51
2022/06/02 04:23:23;;;;;;;11.73;8.10;;;;;;;10.76;84.30;94063.25;5108081;28;20047;-50
2022/06/02 04:26:11;;;;;;;13.47;8.00;;;;;;;10.90;83.44;94063.06;5102069;28;20050;-51
2022/06/02 04:28:50;;;;;;;13.18;8.27;;;;;;;11.21;82.57;94068.50;5107577;28;20042;-54
2022/06/02 04:31:29;;;;;;;11.50;8.50;;;;;;;11.44;81.58;94065.00;5108164;28;21678;-52
2022/06/02 04:34:08;;;;;;;11.68;7.53;;;;;;;11.38;80.78;94058.41;5109693;28;20127;-49
2022/06/02 04:37:06;;;;;;;11.50;7.20;;;;;;;11.35;80.14;94070.25;5096184;28;20070;-48
2022/06/02 04:40:06;;;;;;;11.43;7.17;;;;;;;11.18;80.17;94064.59;5109119;28;21624;-48
2022/06/02 04:42:54;;;;;;;9.90;7.32;;;;;;;11.04;80.85;94070.31;5068707;28;20188;-48
2022/06/02 04:45:47;;;;;;;12.57;7.65;;;;;;;11.18;80.22;94061.84;5070693;28;20573;-51
2022/06/02 04:48:39;;;;;;;10.10;7.50;;;;;;;11.21;79.72;94065.75;5108782;28;21744;-48
2022/06/02 04:51:33;;;;;;;11.77;7.15;;;;;;;11.46;79.27;94062.59;5111738;28;20392;-48
2022/06/02 04:54:05;;;;;;;10.23;7.10;;;;;;;11.62;78.44;94058.44;5113416;28;20051;-49
2022/06/02 04:56:47;;;;;;;10.13;7.25;;;;;;;11.39;77.89;94065.50;5102449;28;20052;-52
2022/06/02 04:59:16;;;;;;;10.57;7.30;;;;;;;10.97;79.94;94056.69;5102411;28;20437;-47
2022/06/02 05:01:49;;;;;;;10.55;7.45;;;;;;;11.30;78.14;94065.22;5113381;28;20044;-46
2022/06/02 05:04:53;;;;;;;12.23;7.72;;;;;;;11.07;79.05;94076.97;5112481;28;20602;-49
2022/06/02 05:07:50;;;;;;;10.30;7.53;;;;;;;11.72;77.36;94082.97;5112365;28;20776;-50
2022/06/02 05:10:46;;;;;;;10.65;6.60;;;;;;;12.15;75.46;94075.97;5112487;28;22323;-51
2022/06/02 05:13:37;;;;;;;10.32;6.88;;;;;;;11.66;76.24;94078.41;5101214;28;20730;-54
2022/06/02 05:16:13;;;;;;;9.07;6.82;;;;;;;11.88;75.98;94093.31;5112805;28;20052;-54
2022/06/02 05:19:19;;;;;;;10.52;6.95;;;;;;;11.55;76.49;94095.84;5095238;28;20036;-50
2022/06/02 05:22:14;;;;;;;9.57;6.83;;;;;;;11.63;76.24;94088.25;5110423;28;20073;-54
2022/06/02 05:25:02;;;;;;;9.93;6.85;;;;;;;11.96;75.13;94102.25;5100942;28;20046;-52
2022/06/02 05:27:50;;;;;;;10.95;6.43;;;;;;;11.78;74.94;94097.03;5112318;28;20052;-54
2022/06/02 05:30:36;;;;;;;11.82;6.88;;;;;;;12.16;74.69;94094.81;5112183;28;20036;-50
2022/06/02 05:33:35;;;;;;;10.82;6.95;;;;;;;12.01;73.47;94098.25;5099249;28;20054;-56
2022/06/02 05:36:13;;;;;;;8.93;6.53;;;;;;;12.62;71.75;94103.38;5094100;28;20035;-50
2022/06/02 05:38:59;;;;;;;8.82;6.80;;;;;;;12.49;72.02;94111.47;5094762;28;20105;-51
2022/06/02 05:41:51;;;;;;;9.52;6.53;;;;;;;12.47;72.43;94116.63;5111449;28;20127;-51
2022/06/02 05:44:45;;;;;;;9.15;6.43;;;;;;;12.15;74.08;94107.03;5043343;28;20042;-51
2022/06/02 05:47:30;;;;;;;9.48;6.28;;;;;;;13.31;69.57;94094.47;5099372;28;20061;-53
2022/06/02 05:50:06;;;;;;;9.00;6.50;;;;;;;13.61;68.73;94093.38;5093838;28;20036;-47
2022/06/02 05:53:03;;;;;;;8.50;6.15;;;;;;;13.96;67.23;94094.47;5112667;28;20381;-52
2022/06/02 05:56:03;;;;;;;8.48;5.75;;;;;;;14.24;66.26;94086.66;5097301;28;20261;-51
2022/06/02 05:58:50;;;;;;;8.02;6.05;;;;;;;12.88;70.44;94085.16;5111523;28;20046;-52
2022/06/02 06:01:22;;;;;;;10.35;6.20;;;;;;;16.00;59.57;94088.97;5111527;28;20403;-56
2022/06/02 06:03:55;;;;;;;10.60;5.97;;;;;;;18.04;52.45;94089.78;5111558;28;20436;-51
2022/06/02 06:06:31;;;;;;;12.02;5.60;;;;;;;19.50;50.42;94087.38;5112399;28;20051;-47
2022/06/02 06:09:25;;;;;;;7.50;4.90;;;;;;;20.89;44.78;94084.53;5111832;28;20050;-50
2022/06/02 06:11:51;;;;;;;6.63;4.80;;;;;;;23.96;38.68;94080.34;5112070;28;20073;-47
2022/06/02 06:14:25;;;;;;;5.63;4.70;;;;;;;23.36;39.88;94079.31;5111904;28;20417;-52
2022/06/02 06:17:01;;;;;;;6.33;4.80;;;;;;;22.94;39.77;94085.00;5110724;28;20047;-48
2022/06/02 06:19:46;;;;;;;8.45;4.60;;;;;;;21.72;41.50;94088.47;5111556;28;20408;-49
2022/06/02 06:22:21;;;;;;;8.55;4.53;;;;;;;22.19;41.63;94091.44;5102060;28;20676;-49
2022/06/02 06:25:35;;;;;;;9.15;4.38;;;;;;;26.06;34.53;94079.69;5090962;28;20036;-52
2022/06/02 06:28:16;;;;;;;8.52;4.57;;;;;;;25.82;33.50;94088.63;5090621;28;20043;-49
2022/06/02 06:30:46;;;;;;;7.70;4.40;;;;;;;21.11;42.19;94094.56;5091122;28;20048;-55
2022/06/02 06:33:38;;;;;;;5.53;3.97;;;;;;;21.44;40.90;94093.63;5087895;28;20047;-51
2022/06/02 06:36:38;;;;;;;6.32;4.30;;;;;;;21.61;42.27;94102.25;5090473;28;20399;-46
2022/06/02 06:39:13;;;;;;;9.23;5.43;;;;;;;20.68;44.32;94097.56;5091010;28;20050;-50
2022/06/02 06:42:08;;;;;;;7.07;5.03;;;;;;;19.88;46.68;94104.69;5090869;28;20075;-51
2022/06/02 06:44:48;;;;;;;11.53;5.67;;;;;;;21.07;42.61;94097.53;5090794;28;20040;-51
2022/06/02 06:47:36;;;;;;;6.75;4.25;;;;;;;21.20;42.05;94104.84;5089960;28;20040;-53
2022/06/02 06:50:07;;;;;;;8.10;4.35;;;;;;;21.69;41.25;94106.19;5087834;28;20047;-54
2022/06/02 06:52:46;;;;;;;6.78;4.10;;;;;;;23.13;38.72;94101.53;5082419;28;20117;-49
2022/06/02 06:55:34;;;;;;;7.22;4.22;;;;;;;21.07;43.36;94100.31;5090056;28;21650;-50
2022/06/02 06:58:21;;;;;;;5.57;3.87;;;;;;;23.73;37.89;94108.16;5079901;28;20044;-49
2022/06/02 07:01:06;;;;;;;5.32;4.07;;;;;;;26.06;33.73;94097.31;5090846;28;20042;-47
2022/06/02 07:03:39;;;;;;;5.43;3.60;;;;;;;26.46;32.47;94092.38;5091154;28;20044;-51
2022/06/02 07:06:15;;;;;;;6.50;3.00;;;;;;;28.69;28.35;94091.91;5090657;28;20532;-53
2022/06/02 07:08:52;;;;;;;5.40;3.10;;;;;;;25.19;32.56;94103.84;5076900;28;20032;-50
2022/06/02 07:14:45;;;;;;;5.25;3.08;;;;;;;24.01;33.47;94098.47;5089904;28;20793;-51
2022/06/02 07:17:23;;;;;;;3.40;2.40;;;;;;;27.66;28.44;94094.13;5089831;28;20680;-50
2022/06/02 07:20:02;;;;;;;4.43;2.72;;;;;;;26.12;30.57;94094.50;5090514;28;20036;-49
2022/06/02 07:22:46;;;;;;;4.03;2.70;;;;;;;26.24;30.15;94103.69;5087007;28;20330;-54
2022/06/02 07:25:29;;;;;;;3.90;2.50;;;;;;;29.75;25.58;94091.06;5092831;28;20683;-48
2022/06/02 07:28:16;;;;;;;4.43;2.72;;;;;;;31.31;23.62;94094.38;5110483;28;20040;-54
2022/06/02 07:30:42;;;;;;;3.03;2.08;;;;;;;25.06;30.17;94101.53;5111023;28;20040;-55
2022/06/02 07:33:20;;;;;;;4.65;2.28;;;;;;;26.16;29.93;94100.66;5110311;28;20047;-55
2022/06/02 07:36:12;;;;;;;4.03;2.30;;;;;;;28.00;26.74;94105.16;5110299;28;20370;-54
2022/06/02 07:39:07;;;;;;;4.57;2.27;;;;;;;29.19;25.52;94104.66;5110997;28;20096;-50
2022/06/02 07:42:04;;;;;;;4.20;2.20;;;;;;;26.94;27.70;94104.50;5109901;28;20739;-50
2022/06/02 07:44:34;;;;;;;3.38;2.00;;;;;;;25.84;28.88;94097.31;5109901;28;20070;-52
2022/06/02 07:47:16;;;;;;;5.93;2.33;;;;;;;28.60;24.70;94097.94;5110197;28;20051;-51
2022/06/02 07:50:21;;;;;;;5.10;2.30;;;;;;;27.97;25.94;94094.94;5110848;28;20040;-52
2022/06/02 07:52:56;;;;;;;2.87;1.87;;;;;;;29.37;24.16;94096.72;5105760;28;20403;-49
2022/06/02 07:55:38;;;;;;;3.90;2.20;;;;;;;28.06;24.98;94093.81;5106554;28;20522;-50
2022/06/02 07:58:43;;;;;;;3.47;1.90;;;;;;;27.72;24.84;94099.72;5108761;28;20050;-58
2022/06/02 08:01:16;;;;;;;2.95;1.75;;;;;;;29.20;23.23;94100.56;5103802;28;20101;-52
2022/06/02 08:04:21;;;;;;;2.80;1.60;;;;;;;29.83;22.84;94086.28;5088680;28;20046;-53
2022/06/02 08:06:55;;;;;;;3.77;1.80;;;;;;;30.43;22.38;94082.19;5108957;28;20039;-55
2022/06/02 08:09:43;;;;;;;3.83;1.80;;;;;;;28.09;24.77;94085.06;5097626;28;20050;-50
2022/06/02 08:12:35;;;;;;;3.40;1.83;;;;;;;29.62;23.63;94091.72;5110106;28;20050;-51
2022/06/02 08:15:26;;;;;;;3.95;1.77;;;;;;;26.31;28.12;94105.97;5109963;28;20058;-52
2022/06/02 08:18:25;;;;;;;3.53;2.03;;;;;;;27.24;26.80;94090.53;5096750;28;20039;-52
2022/06/02 08:21:20;;;;;;;3.10;1.87;;;;;;;28.46;25.39;94108.31;5109882;28;20070;-53
2022/06/02 08:24:16;;;;;;;3.30;1.80;;;;;;;28.03;25.39;94115.41;5104299;28;20052;-54
2022/06/02 08:27:12;;;;;;;3.10;1.90;;;;;;;28.73;24.69;94119.84;5062225;28;20046;-51
2022/06/02 08:29:48;;;;;;;3.05;1.88;;;;;;;31.56;21.69;94097.69;5110506;28;21484;-56
2022/06/02 08:32:31;;;;;;;3.20;1.90;;;;;;;29.36;23.75;94112.16;5103834;28;20391;-55
2022/06/02 08:35:11;;;;;;;3.70;2.20;;;;;;;30.57;22.98;94094.31;5099186;28;20047;-49
2022/06/02 08:37:51;;;;;;;3.72;2.00;;;;;;;32.49;21.04;94102.16;5114284;28;20049;-52
2022/06/02 08:40:51;;;;;;;4.85;2.00;;;;;;;26.54;27.21;94112.34;5113265;28;20047;-58
2022/06/02 08:43:37;;;;;;;4.00;1.77;;;;;;;28.11;24.97;94107.13;5113014;28;20577;-53
2022/06/02 08:46:18;;;;;;;2.97;1.90;;;;;;;31.06;22.35;94102.38;5113439;28;20051;-49
2022/06/02 08:49:24;;;;;;;4.43;2.03;;;;;;;32.64;20.49;94096.63;5095852;28;20039;-52
2022/06/02 08:52:29;;;;;;;5.18;2.10;;;;;;;25.05;29.11;94106.41;5080670;28;20355;-51
2022/06/02 08:55:14;;;;;;;3.55;2.08;;;;;;;27.16;26.96;94105.69;5113381;28;20056;-52
2022/06/02 08:58:58;;;;;;;3.97;2.30;;;;;;;24.40;31.01;94115.53;5112358;28;20051;-52
2022/06/02 09:01:33;;;;;;;3.67;2.20;;;;;;;26.95;27.25;94111.69;5047156;28;20603;-50
2022/06/02 09:04:28;;;;;;;3.30;2.30;;;;;;;28.32;26.32;94109.50;5050220;28;20098;-55
2022/06/02 09:07:10;;;;;;;4.80;2.55;;;;;;;25.87;28.99;94110.34;5104328;28;20044;-52
2022/06/02 09:10:09;;;;;;;4.72;2.40;;;;;;;23.13;34.51;94101.53;5100904;28;20068;-50
2022/06/02 09:13:16;;;;;;;3.92;2.42;;;;;;;23.68;32.44;94108.13;5113769;28;20039;-51
2022/06/02 09:16:16;;;;;;;4.50;2.70;;;;;;;24.45;31.90;94109.19;5082139;28;20651;-54
2022/06/02 09:19:12;;;;;;;4.53;2.10;;;;;;;29.41;24.76;94097.19;5102349;28;20040;-52
2022/06/02 09:22:12;;;;;;;3.70;2.10;;;;;;;32.11;22.28;94087.66;5112047;28;20054;-55
2022/06/02 09:24:47;;;;;;;3.08;1.90;;;;;;;31.33;22.33;94088.91;5094072;28;20404;-50
2022/06/02 09:27:48;;;;;;;3.40;2.10;;;;;;;32.41;21.51;94095.66;5112163;28;20104;-52
2022/06/02 09:30:44;;;;;;;3.47;1.90;;;;;;;30.37;23.24;94102.13;5112463;28;20587;-49
2022/06/02 09:33:37;;;;;;;5.10;2.50;;;;;;;26.71;27.69;94098.22;5112774;28;20044;-53
2022/06/02 09:36:29;;;;;;;5.35;2.50;;;;;;;25.50;29.68;94098.06;5112137;28;20050;-47
2022/06/02 09:39:33;;;;;;;5.15;2.40;;;;;;;27.49;27.22;94091.44;5112156;28;20050;-53
2022/06/02 09:42:18;;;;;;;3.35;1.90;;;;;;;31.15;23.05;94084.91;5112528;28;20399;-51
2022/06/02 09:45:19;;;;;;;4.18;2.15;;;;;;;32.20;21.55;94087.94;5094976;28;20039;-47
2022/06/02 09:47:51;;;;;;;4.10;2.20;;;;;;;27.89;26.04;94077.06;5111809;28;20812;-47
2022/06/02 09:50:42;;;;;;;4.35;2.10;;;;;;;31.36;22.33;94067.19;5079501;28;20043;-49
2022/06/02 09:53:31;;;;;;;3.80;2.13;;;;;;;30.57;23.43;94071.66;5106223;28;20049;-46
2022/06/02 09:55:58;;;;;;;3.50;2.28;;;;;;;27.06;27.53;94075.03;5082069;28;20395;-47
2022/06/02 09:58:51;;;;;;;3.65;2.30;;;;;;;26.43;28.85;94073.72;5112664;28;20035;-48
2022/06/02 10:01:32;;;;;;;4.53;2.10;;;;;;;31.85;22.34;94070.19;5111755;28;20694;-52
2022/06/02 10:04:35;;;;;;;3.80;2.20;;;;;;;30.86;23.05;94079.03;5112081;28;20050;-51
2022/06/02 10:07:23;;;;;;;4.53;2.00;;;;;;;31.24;22.65;94087.28;5093729;28;20039;-54
2022/06/02 10:10:11;;;;;;;3.47;1.90;;;;;;;31.20;23.12;94091.75;5111674;28;20426;-54
2022/06/02 10:12:57;;;;;;;4.65;2.10;;;;;;;29.32;24.08;94100.38;5094100;28;20038;-54
2022/06/02 10:15:42;;;;;;;5.00;2.20;;;;;;;29.15;25.50;94097.81;5111473;28;20408;-51
2022/06/02 10:18:31;;;;;;;3.67;1.98;;;;;;;31.90;22.71;94082.72;5111892;28;20043;-47
2022/06/02 10:21:38;;;;;;;3.97;2.10;;;;;;;32.62;21.40;94084.28;5110306;28;20036;-56
2022/06/02 10:24:48;;;;;;;4.55;2.25;;;;;;;24.79;30.90;94094.56;5056998;28;20040;-49
2022/06/02 10:27:40;;;;;;;3.70;2.40;;;;;;;24.82;32.24;94093.56;5095368;28;20070;-50
2022/06/02 10:30:34;;;;;;;5.30;2.73;;;;;;;24.38;32.94;94095.63;5104354;28;20048;-53
2022/06/02 10:33:14;;;;;;;4.55;2.42;;;;;;;24.96;32.48;94086.19;5074590;28;20511;-47
2022/06/02 10:36:18;;;;;;;4.05;2.50;;;;;;;24.66;33.31;94090.16;5112052;28;20048;-47
2022/06/02 10:39:15;;;;;;;4.28;2.55;;;;;;;27.04;28.94;94085.25;5103087;28;20439;-54
2022/06/02 10:41:53;;;;;;;5.28;2.40;;;;;;;28.08;27.48;94088.41;5109154;28;20044;-52
2022/06/02 10:44:49;;;;;;;3.73;2.40;;;;;;;27.68;28.51;94091.53;5093004;28;20436;-51
2022/06/02 10:47:36;;;;;;;4.68;2.35;;;;;;;27.53;27.90;94093.19;5110584;28;20314;-53
2022/06/02 10:50:19;;;;;;;4.20;2.20;;;;;;;27.95;27.79;94088.28;5111276;28;20561;-53
2022/06/02 10:52:49;;;;;;;3.72;2.50;;;;;;;25.63;30.77;94079.94;5111501;28;20742;-53
2022/06/02 10:55:37;;;;;;;4.65;2.42;;;;;;;24.37;33.71;94082.88;5110648;28;20692;-50
2022/06/02 10:58:25;;;;;;;4.43;2.70;;;;;;;25.21;33.20;94076.03;5111036;28;20051;-50
2022/06/02 11:01:20;;;;;;;4.07;2.33;;;;;;;24.89;32.76;94073.41;5110980;28;20052;-49
2022/06/02 11:03:46;;;;;;;4.68;2.65;;;;;;;25.43;31.67;94069.72;5110786;28;20044;-47
2022/06/02 11:06:41;;;;;;;3.90;2.30;;;;;;;26.34;31.33;94078.84;5111233;28;20035;-48
2022/06/02 11:09:14;;;;;;;4.35;2.50;;;;;;;25.30;32.12;94087.81;5110875;28;20385;-55
2022/06/02 11:12:08;;;;;;;4.17;2.80;;;;;;;24.06;34.04;94080.91;5111268;28;20035;-50
2022/06/02 11:15:01;;;;;;;3.97;2.80;;;;;;;24.70;33.81;94084.31;5109827;28;20633;-52
2022/06/02 11:17:43;;;;;;;4.93;2.75;;;;;;;23.71;35.54;94076.31;5110217;28;21823;-53
2022/06/02 11:20:20;;;;;;;4.40;2.80;;;;;;;23.07;36.08;94084.66;5110503;28;20042;-48
2022/06/02 11:23:15;;;;;;;5.28;3.10;;;;;;;22.36;37.66;94063.75;5110205;28;20042;-49
2022/06/02 11:26:08;;;;;;;6.23;3.20;;;;;;;22.29;38.66;94065.69;5109528;28;20134;-52
2022/06/02 11:29:10;;;;;;;4.72;3.20;;;;;;;22.98;36.65;94051.22;5110721;28;20279;-52
2022/06/02 11:32:11;;;;;;;4.55;2.90;;;;;;;24.08;35.26;94047.53;5095535;28;20637;-47
2022/06/02 11:34:53;;;;;;;3.75;2.80;;;;;;;23.73;36.12;94052.13;5104555;28;20642;-48
2022/06/02 11:37:41;;;;;;;5.75;3.47;;;;;;;22.64;37.79;94056.44;5095782;28;20834;-51
2022/06/02 11:40:45;;;;;;;5.20;2.97;;;;;;;23.72;35.45;94053.41;5109963;28;20047;-52
2022/06/02 11:43:24;;;;;;;5.75;3.20;;;;;;;24.62;34.89;94041.19;5109727;28;20264;-50
2022/06/02 11:46:10;;;;;;;4.30;2.88;;;;;;;25.68;33.34;94042.66;5110115;28;20151;-51
2022/06/02 11:49:17;;;;;;;6.10;2.90;;;;;;;25.78;33.02;94034.72;5102665;28;20036;-48
2022/06/02 11:52:11;;;;;;;4.30;2.97;;;;;;;25.98;33.00;94026.00;5108688;28;20577;-48
2022/06/02 11:55:06;;;;;;;5.37;2.80;;;;;;;27.13;30.41;94030.69;5106178;28;21817;-51
2022/06/02 11:58:06;;;;;;;4.10;2.80;;;;;;;26.82;30.35;94032.63;5099984;28;20058;-56
2022/06/02 12:00:48;;;;;;;4.22;2.88;;;;;;;24.56;34.57;94035.53;5092994;28;21816;-52
2022/06/02 12:03:36;;;;;;;4.30;3.05;;;;;;;24.28;35.77;94036.16;5109680;28;20373;-51
2022/06/02 12:06:19;;;;;;;4.13;3.13;;;;;;;22.96;38.82;94041.75;5109923;28;20052;-50
2022/06/02 12:09:22;;;;;;;5.07;3.50;;;;;;;22.67;39.08;94049.09;5110389;28;20051;-48
2022/06/02 12:12:31;;;;;;;4.90;3.38;;;;;;;22.55;38.82;94037.00;5109186;28;20405;-51
2022/06/02 12:15:22;;;;;;;4.20;3.10;;;;;;;23.28;37.92;94037.78;5066569;28;20062;-52
2022/06/02 12:18:16;;;;;;;5.57;3.58;;;;;;;23.32;38.87;94043.94;5066851;28;20404;-52
2022/06/02 12:21:11;;;;;;;6.72;3.60;;;;;;;23.43;37.98;94048.09;5103789;28;20050;-53
2022/06/02 12:23:53;;;;;;;6.10;3.70;;;;;;;23.60;37.88;94046.16;5104993;28;20651;-54
2022/06/02 12:26:48;;;;;;;5.78;3.40;;;;;;;24.29;37.09;94048.16;5105166;28;20428;-52
2022/06/02 12:29:39;;;;;;;4.32;3.33;;;;;;;23.68;38.32;94057.69;5109332;28;20910;-52
2022/06/02 12:32:45;;;;;;;5.70;3.50;;;;;;;23.67;38.26;94048.53;5106055;28;20392;-51
2022/06/02 12:35:28;;;;;;;5.18;3.20;;;;;;;23.74;37.61;94047.28;5109261;28;20403;-48
2022/06/02 12:38:05;;;;;;;4.73;3.30;;;;;;;23.68;38.63;94052.88;5076164;28;20047;-52
2022/06/02 12:41:12;;;;;;;5.88;3.53;;;;;;;22.62;40.52;94050.59;5105685;28;20036;-49
2022/06/02 12:44:01;;;;;;;5.18;3.60;;;;;;;22.52;40.83;94049.19;5104620;28;20044;-52
2022/06/02 12:47:11;;;;;;;5.47;3.53;;;;;;;22.33;42.05;94059.88;5098321;28;20396;-52
2022/06/02 12:49:53;;;;;;;5.72;3.60;;;;;;;22.53;41.05;94056.31;5098032;28;20809;-51
2022/06/02 12:52:57;;;;;;;6.43;3.63;;;;;;;23.28;39.51;94057.38;5094697;28;20501;-47
2022/06/02 12:55:33;;;;;;;5.55;3.67;;;;;;;23.98;38.45;94046.19;5109188;28;20043;-55
2022/06/02 12:58:21;;;;;;;4.97;3.58;;;;;;;24.82;36.77;94043.78;5109204;28;20412;-51
2022/06/02 13:00:51;;;;;;;6.85;3.90;;;;;;;24.32;37.05;94063.97;5087713;28;20055;-54
2022/06/02 13:03:33;;;;;;;5.95;3.83;;;;;;;24.68;36.27;94051.13;5108466;28;20040;-50
2022/06/02 13:06:22;;;;;;;6.10;3.73;;;;;;;23.83;37.92;94063.94;5106368;28;20040;-50
2022/06/02 13:09:20;;;;;;;4.93;3.35;;;;;;;24.40;37.60;94065.03;5101695;28;20051;-50
2022/06/02 13:12:15;;;;;;;6.90;3.42;;;;;;;23.82;39.11;94067.25;5110928;28;20040;-49
2022/06/02 13:15:09;;;;;;;6.50;3.80;;;;;;;22.62;40.98;94070.16;5078434;28;20040;-56